sensor_id;sensor_type;location;lat;lon;timestamp;P1;durP1;ratioP1;P2;durP2;ratioP2
73959;SDS011;62316;48.920;2.342;2024-01-16T00:01:24;75.75;;;60.50;;
73959;SDS011;62316;48.920;2.342;2024-01-16T00:03:50;79.75;;;63.75;;
73959;SDS011;62316;48.920;2.342;2024-01-16T00:06:15;82.25;;;64.50;;
73959;SDS011;62316;48.920;2.342;2024-01-16T00:08:40;83.75;;;66.25;;
73959;SDS011;62316;48.920;2.342;2024-01-16T00:11:06;83.25;;;66.50;;
73959;SDS011;62316;48.920;2.342;2024-01-16T00:13:32;89.75;;;67.75;;
73959;SDS011;62316;48.920;2.342;2024-01-16T00:15:58;86.75;;;67.50;;
73959;SDS011;62316;48.920;2.342;2024-01-16T00:18:23;82.00;;;63.25;;
73959;SDS011;62316;48.920;2.342;2024-01-16T00:20:48;85.50;;;66.75;;
73959;SDS011;62316;48.920;2.342;2024-01-16T00:23:14;81.50;;;63.00;;
73959;SDS011;62316;48.920;2.342;2024-01-16T00:25:39;83.25;;;64.25;;
73959;SDS011;62316;48.920;2.342;2024-01-16T00:28:05;82.00;;;63.00;;
73959;SDS011;62316;48.920;2.342;2024-01-16T00:30:30;88.25;;;69.25;;
73959;SDS011;62316;48.920;2.342;2024-01-16T00:32:56;90.50;;;70.25;;
73959;SDS011;62316;48.920;2.342;2024-01-16T00:35:21;86.00;;;68.25;;
73959;SDS011;62316;48.920;2.342;2024-01-16T00:37:47;88.50;;;67.50;;
73959;SDS011;62316;48.920;2.342;2024-01-16T00:40:12;84.25;;;66.25;;
73959;SDS011;62316;48.920;2.342;2024-01-16T00:42:38;60.50;;;46.00;;
73959;SDS011;62316;48.920;2.342;2024-01-16T00:45:03;87.00;;;67.00;;
73959;SDS011;62316;48.920;2.342;2024-01-16T00:47:29;81.25;;;62.50;;
73959;SDS011;62316;48.920;2.342;2024-01-16T00:49:55;86.75;;;67.00;;
73959;SDS011;62316;48.920;2.342;2024-01-16T00:52:20;89.00;;;70.25;;
73959;SDS011;62316;48.920;2.342;2024-01-16T00:54:45;85.75;;;68.25;;
73959;SDS011;62316;48.920;2.342;2024-01-16T00:57:11;88.50;;;67.25;;
73959;SDS011;62316;48.920;2.342;2024-01-16T00:59:36;84.25;;;67.25;;
73959;SDS011;62316;48.920;2.342;2024-01-16T01:02:02;95.00;;;70.75;;
73959;SDS011;62316;48.920;2.342;2024-01-16T01:04:28;95.00;;;73.75;;
73959;SDS011;62316;48.920;2.342;2024-01-16T01:06:54;100.00;;;82.25;;
73959;SDS011;62316;48.920;2.342;2024-01-16T01:09:19;97.33;;;73.67;;
73959;SDS011;62316;48.920;2.342;2024-01-16T01:11:45;99.00;;;80.33;;
73959;SDS011;62316;48.920;2.342;2024-01-16T01:14:10;102.67;;;78.33;;
73959;SDS011;62316;48.920;2.342;2024-01-16T01:16:35;97.00;;;78.25;;
73959;SDS011;62316;48.920;2.342;2024-01-16T01:19:01;93.00;;;75.25;;
73959;SDS011;62316;48.920;2.342;2024-01-16T01:21:26;99.33;;;84.00;;
73959;SDS011;62316;48.920;2.342;2024-01-16T01:23:52;96.75;;;80.25;;
73959;SDS011;62316;48.920;2.342;2024-01-16T01:26:17;94.75;;;75.75;;
73959;SDS011;62316;48.920;2.342;2024-01-16T01:28:44;101.25;;;77.00;;
73959;SDS011;62316;48.920;2.342;2024-01-16T01:31:10;94.75;;;73.75;;
73959;SDS011;62316;48.920;2.342;2024-01-16T01:33:35;91.00;;;73.50;;
73959;SDS011;62316;48.920;2.342;2024-01-16T01:36:01;103.00;;;84.00;;
73959;SDS011;62316;48.920;2.342;2024-01-16T01:38:26;95.00;;;76.33;;
73959;SDS011;62316;48.920;2.342;2024-01-16T01:40:52;94.50;;;71.75;;
73959;SDS011;62316;48.920;2.342;2024-01-16T01:43:21;89.75;;;70.75;;
73959;SDS011;62316;48.920;2.342;2024-01-16T01:45:54;94.25;;;78.00;;
73959;SDS011;62316;48.920;2.342;2024-01-16T01:48:26;96.00;;;72.00;;
73959;SDS011;62316;48.920;2.342;2024-01-16T01:50:51;95.50;;;78.00;;
73959;SDS011;62316;48.920;2.342;2024-01-16T01:53:17;96.75;;;73.00;;
73959;SDS011;62316;48.920;2.342;2024-01-16T01:55:44;98.00;;;78.00;;
73959;SDS011;62316;48.920;2.342;2024-01-16T01:58:11;90.00;;;68.50;;
73959;SDS011;62316;48.920;2.342;2024-01-16T02:00:36;98.00;;;79.75;;
73959;SDS011;62316;48.920;2.342;2024-01-16T02:03:02;101.75;;;84.75;;
73959;SDS011;62316;48.920;2.342;2024-01-16T02:05:27;97.00;;;80.00;;
73959;SDS011;62316;48.920;2.342;2024-01-16T02:07:53;101.00;;;80.25;;
73959;SDS011;62316;48.920;2.342;2024-01-16T02:10:19;94.25;;;78.00;;
73959;SDS011;62316;48.920;2.342;2024-01-16T02:12:45;98.75;;;78.00;;
73959;SDS011;62316;48.920;2.342;2024-01-16T02:15:10;95.75;;;77.00;;
73959;SDS011;62316;48.920;2.342;2024-01-16T02:17:36;94.25;;;73.25;;
73959;SDS011;62316;48.920;2.342;2024-01-16T02:20:01;101.67;;;80.00;;
73959;SDS011;62316;48.920;2.342;2024-01-16T02:22:27;97.33;;;79.33;;
73959;SDS011;62316;48.920;2.342;2024-01-16T02:24:54;102.33;;;81.33;;
73959;SDS011;62316;48.920;2.342;2024-01-16T02:27:19;98.67;;;82.33;;
73959;SDS011;62316;48.920;2.342;2024-01-16T02:29:45;102.67;;;82.67;;
73959;SDS011;62316;48.920;2.342;2024-01-16T02:32:11;98.00;;;78.67;;
73959;SDS011;62316;48.920;2.342;2024-01-16T02:34:37;100.67;;;86.33;;
73959;SDS011;62316;48.920;2.342;2024-01-16T02:37:03;101.33;;;85.00;;
73959;SDS011;62316;48.920;2.342;2024-01-16T02:39:29;95.00;;;75.50;;
73959;SDS011;62316;48.920;2.342;2024-01-16T02:41:54;98.00;;;79.33;;
73959;SDS011;62316;48.920;2.342;2024-01-16T02:44:20;91.50;;;69.25;;
73959;SDS011;62316;48.920;2.342;2024-01-16T02:46:45;97.75;;;80.00;;
73959;SDS011;62316;48.920;2.342;2024-01-16T02:49:17;96.00;;;73.75;;
73959;SDS011;62316;48.920;2.342;2024-01-16T02:51:42;96.50;;;75.75;;
73959;SDS011;62316;48.920;2.342;2024-01-16T02:54:08;86.50;;;66.50;;
73959;SDS011;62316;48.920;2.342;2024-01-16T02:56:34;93.25;;;71.25;;
73959;SDS011;62316;48.920;2.342;2024-01-16T02:59:00;89.75;;;67.25;;
73959;SDS011;62316;48.920;2.342;2024-01-16T03:01:25;92.75;;;70.50;;
73959;SDS011;62316;48.920;2.342;2024-01-16T03:03:50;89.50;;;70.50;;
73959;SDS011;62316;48.920;2.342;2024-01-16T03:06:22;88.75;;;69.50;;
73959;SDS011;62316;48.920;2.342;2024-01-16T03:08:49;85.50;;;68.00;;
73959;SDS011;62316;48.920;2.342;2024-01-16T03:11:15;85.00;;;66.00;;
73959;SDS011;62316;48.920;2.342;2024-01-16T03:13:40;85.50;;;67.50;;
73959;SDS011;62316;48.920;2.342;2024-01-16T03:16:11;82.25;;;66.00;;
73959;SDS011;62316;48.920;2.342;2024-01-16T03:18:37;82.25;;;64.25;;
73959;SDS011;62316;48.920;2.342;2024-01-16T03:21:04;87.00;;;65.25;;
73959;SDS011;62316;48.920;2.342;2024-01-16T03:23:31;86.25;;;67.75;;
73959;SDS011;62316;48.920;2.342;2024-01-16T03:25:59;85.50;;;64.25;;
73959;SDS011;62316;48.920;2.342;2024-01-16T03:28:24;87.25;;;69.25;;
73959;SDS011;62316;48.920;2.342;2024-01-16T03:30:50;83.50;;;68.00;;
73959;SDS011;62316;48.920;2.342;2024-01-16T03:33:15;89.75;;;69.00;;
73959;SDS011;62316;48.920;2.342;2024-01-16T03:35:42;85.75;;;66.00;;
73959;SDS011;62316;48.920;2.342;2024-01-16T03:38:07;91.75;;;69.75;;
73959;SDS011;62316;48.920;2.342;2024-01-16T03:40:32;86.00;;;68.25;;
73959;SDS011;62316;48.920;2.342;2024-01-16T03:42:59;86.25;;;65.50;;
73959;SDS011;62316;48.920;2.342;2024-01-16T03:45:30;82.25;;;63.75;;
73959;SDS011;62316;48.920;2.342;2024-01-16T03:47:55;82.25;;;65.75;;
73959;SDS011;62316;48.920;2.342;2024-01-16T03:50:20;86.50;;;65.00;;
73959;SDS011;62316;48.920;2.342;2024-01-16T03:52:46;87.50;;;68.75;;
73959;SDS011;62316;48.920;2.342;2024-01-16T03:55:11;85.75;;;67.00;;
73959;SDS011;62316;48.920;2.342;2024-01-16T03:57:37;86.75;;;67.25;;
73959;SDS011;62316;48.920;2.342;2024-01-16T04:00:02;84.25;;;64.75;;
73959;SDS011;62316;48.920;2.342;2024-01-16T04:02:30;88.50;;;68.25;;
73959;SDS011;62316;48.920;2.342;2024-01-16T04:04:55;88.50;;;68.25;;
73959;SDS011;62316;48.920;2.342;2024-01-16T04:07:22;86.25;;;66.00;;
73959;SDS011;62316;48.920;2.342;2024-01-16T04:09:48;83.50;;;66.00;;
73959;SDS011;62316;48.920;2.342;2024-01-16T04:12:13;84.75;;;65.75;;
73959;SDS011;62316;48.920;2.342;2024-01-16T04:14:39;91.00;;;69.00;;
73959;SDS011;62316;48.920;2.342;2024-01-16T04:17:05;90.50;;;71.00;;
73959;SDS011;62316;48.920;2.342;2024-01-16T04:19:31;91.50;;;70.50;;
73959;SDS011;62316;48.920;2.342;2024-01-16T04:21:58;93.75;;;72.25;;
73959;SDS011;62316;48.920;2.342;2024-01-16T04:24:24;86.50;;;68.00;;
73959;SDS011;62316;48.920;2.342;2024-01-16T04:26:50;91.75;;;69.75;;
73959;SDS011;62316;48.920;2.342;2024-01-16T04:29:15;90.50;;;71.25;;
73959;SDS011;62316;48.920;2.342;2024-01-16T04:31:41;90.50;;;72.50;;
73959;SDS011;62316;48.920;2.342;2024-01-16T04:34:06;90.50;;;70.25;;
73959;SDS011;62316;48.920;2.342;2024-01-16T04:36:32;97.00;;;74.00;;
73959;SDS011;62316;48.920;2.342;2024-01-16T04:38:57;80.00;;;64.00;;
73959;SDS011;62316;48.920;2.342;2024-01-16T04:41:23;88.00;;;69.00;;
73959;SDS011;62316;48.920;2.342;2024-01-16T04:43:48;85.00;;;69.25;;
73959;SDS011;62316;48.920;2.342;2024-01-16T04:46:15;90.75;;;70.75;;
73959;SDS011;62316;48.920;2.342;2024-01-16T04:48:41;90.25;;;72.00;;
73959;SDS011;62316;48.920;2.342;2024-01-16T04:51:08;93.75;;;72.75;;
73959;SDS011;62316;48.920;2.342;2024-01-16T04:53:34;90.25;;;70.00;;
73959;SDS011;62316;48.920;2.342;2024-01-16T04:56:00;91.00;;;72.00;;
73959;SDS011;62316;48.920;2.342;2024-01-16T04:58:25;86.75;;;69.00;;
73959;SDS011;62316;48.920;2.342;2024-01-16T05:00:50;90.75;;;71.25;;
73959;SDS011;62316;48.920;2.342;2024-01-16T05:03:16;85.00;;;68.00;;
73959;SDS011;62316;48.920;2.342;2024-01-16T05:05:43;92.00;;;71.25;;
73959;SDS011;62316;48.920;2.342;2024-01-16T05:08:09;87.25;;;67.25;;
73959;SDS011;62316;48.920;2.342;2024-01-16T05:10:34;95.00;;;69.75;;
73959;SDS011;62316;48.920;2.342;2024-01-16T05:13:00;91.00;;;71.00;;
73959;SDS011;62316;48.920;2.342;2024-01-16T05:15:25;94.25;;;70.50;;
73959;SDS011;62316;48.920;2.342;2024-01-16T05:17:51;89.75;;;68.25;;
73959;SDS011;62316;48.920;2.342;2024-01-16T05:20:17;93.50;;;70.75;;
73959;SDS011;62316;48.920;2.342;2024-01-16T05:22:42;95.75;;;75.50;;
73959;SDS011;62316;48.920;2.342;2024-01-16T05:25:07;90.50;;;71.00;;
73959;SDS011;62316;48.920;2.342;2024-01-16T05:27:33;87.00;;;67.25;;
73959;SDS011;62316;48.920;2.342;2024-01-16T05:29:59;95.50;;;73.75;;
73959;SDS011;62316;48.920;2.342;2024-01-16T05:32:25;92.25;;;71.50;;
73959;SDS011;62316;48.920;2.342;2024-01-16T05:34:51;92.75;;;73.25;;
73959;SDS011;62316;48.920;2.342;2024-01-16T05:37:17;95.00;;;72.00;;
73959;SDS011;62316;48.920;2.342;2024-01-16T05:39:42;98.50;;;72.00;;
73959;SDS011;62316;48.920;2.342;2024-01-16T05:42:08;93.25;;;73.00;;
73959;SDS011;62316;48.920;2.342;2024-01-16T05:44:34;95.75;;;71.25;;
73959;SDS011;62316;48.920;2.342;2024-01-16T05:47:00;91.00;;;71.25;;
73959;SDS011;62316;48.920;2.342;2024-01-16T05:49:25;94.75;;;71.50;;
73959;SDS011;62316;48.920;2.342;2024-01-16T05:51:51;90.00;;;70.25;;
73959;SDS011;62316;48.920;2.342;2024-01-16T05:54:16;92.25;;;72.75;;
73959;SDS011;62316;48.920;2.342;2024-01-16T05:56:41;91.75;;;72.00;;
73959;SDS011;62316;48.920;2.342;2024-01-16T05:59:07;94.50;;;72.50;;
73959;SDS011;62316;48.920;2.342;2024-01-16T06:01:33;89.50;;;70.25;;
73959;SDS011;62316;48.920;2.342;2024-01-16T06:03:58;93.00;;;72.25;;
73959;SDS011;62316;48.920;2.342;2024-01-16T06:06:25;93.50;;;74.25;;
73959;SDS011;62316;48.920;2.342;2024-01-16T06:08:50;92.25;;;73.75;;
73959;SDS011;62316;48.920;2.342;2024-01-16T06:11:15;90.75;;;71.25;;
73959;SDS011;62316;48.920;2.342;2024-01-16T06:13:41;92.25;;;71.00;;
73959;SDS011;62316;48.920;2.342;2024-01-16T06:16:06;93.50;;;70.75;;
73959;SDS011;62316;48.920;2.342;2024-01-16T06:18:35;94.50;;;77.50;;
73959;SDS011;62316;48.920;2.342;2024-01-16T06:21:00;96.25;;;73.50;;
73959;SDS011;62316;48.920;2.342;2024-01-16T06:23:29;85.25;;;65.50;;
73959;SDS011;62316;48.920;2.342;2024-01-16T06:25:55;94.00;;;70.50;;
73959;SDS011;62316;48.920;2.342;2024-01-16T06:28:20;96.00;;;73.75;;
73959;SDS011;62316;48.920;2.342;2024-01-16T06:30:45;94.00;;;71.75;;
73959;SDS011;62316;48.920;2.342;2024-01-16T06:33:11;92.75;;;70.50;;
73959;SDS011;62316;48.920;2.342;2024-01-16T06:35:36;90.25;;;72.00;;
73959;SDS011;62316;48.920;2.342;2024-01-16T06:38:03;94.50;;;72.75;;
73959;SDS011;62316;48.920;2.342;2024-01-16T06:40:28;90.25;;;70.00;;
73959;SDS011;62316;48.920;2.342;2024-01-16T06:42:54;90.00;;;71.00;;
73959;SDS011;62316;48.920;2.342;2024-01-16T06:45:19;98.00;;;73.25;;
73959;SDS011;62316;48.920;2.342;2024-01-16T06:47:46;96.00;;;74.00;;
73959;SDS011;62316;48.920;2.342;2024-01-16T06:50:11;97.50;;;74.25;;
73959;SDS011;62316;48.920;2.342;2024-01-16T06:52:36;86.00;;;70.25;;
73959;SDS011;62316;48.920;2.342;2024-01-16T06:55:02;85.50;;;68.25;;
73959;SDS011;62316;48.920;2.342;2024-01-16T06:57:27;99.25;;;74.00;;
73959;SDS011;62316;48.920;2.342;2024-01-16T06:59:53;92.75;;;71.75;;
73959;SDS011;62316;48.920;2.342;2024-01-16T07:02:18;99.25;;;73.00;;
73959;SDS011;62316;48.920;2.342;2024-01-16T07:04:44;95.75;;;71.00;;
73959;SDS011;62316;48.920;2.342;2024-01-16T07:07:09;97.25;;;71.75;;
73959;SDS011;62316;48.920;2.342;2024-01-16T07:09:34;92.50;;;71.50;;
73959;SDS011;62316;48.920;2.342;2024-01-16T07:12:00;94.25;;;71.75;;
73959;SDS011;62316;48.920;2.342;2024-01-16T07:14:28;92.00;;;70.25;;
73959;SDS011;62316;48.920;2.342;2024-01-16T07:16:54;92.75;;;69.00;;
73959;SDS011;62316;48.920;2.342;2024-01-16T07:19:19;93.00;;;72.00;;
73959;SDS011;62316;48.920;2.342;2024-01-16T07:21:44;90.00;;;69.75;;
73959;SDS011;62316;48.920;2.342;2024-01-16T07:24:10;95.50;;;76.75;;
73959;SDS011;62316;48.920;2.342;2024-01-16T07:26:35;99.75;;;74.00;;
73959;SDS011;62316;48.920;2.342;2024-01-16T07:29:00;92.75;;;72.50;;
73959;SDS011;62316;48.920;2.342;2024-01-16T07:31:26;91.00;;;70.50;;
73959;SDS011;62316;48.920;2.342;2024-01-16T07:33:51;93.00;;;73.00;;
73959;SDS011;62316;48.920;2.342;2024-01-16T07:36:17;89.75;;;70.00;;
73959;SDS011;62316;48.920;2.342;2024-01-16T07:38:42;98.00;;;74.00;;
73959;SDS011;62316;48.920;2.342;2024-01-16T07:41:07;87.25;;;68.50;;
73959;SDS011;62316;48.920;2.342;2024-01-16T07:43:33;93.00;;;73.25;;
73959;SDS011;62316;48.920;2.342;2024-01-16T07:46:00;95.00;;;74.00;;
73959;SDS011;62316;48.920;2.342;2024-01-16T07:48:26;95.33;;;76.33;;
73959;SDS011;62316;48.920;2.342;2024-01-16T07:50:51;94.00;;;72.00;;
73959;SDS011;62316;48.920;2.342;2024-01-16T07:53:17;96.25;;;76.00;;
73959;SDS011;62316;48.920;2.342;2024-01-16T07:55:42;93.50;;;75.00;;
73959;SDS011;62316;48.920;2.342;2024-01-16T07:58:11;92.50;;;69.00;;
73959;SDS011;62316;48.920;2.342;2024-01-16T08:00:37;97.75;;;74.75;;
73959;SDS011;62316;48.920;2.342;2024-01-16T08:03:02;87.25;;;69.25;;
73959;SDS011;62316;48.920;2.342;2024-01-16T08:05:28;94.00;;;73.75;;
73959;SDS011;62316;48.920;2.342;2024-01-16T08:07:55;75.25;;;58.75;;
73959;SDS011;62316;48.920;2.342;2024-01-16T08:10:21;93.00;;;73.50;;
73959;SDS011;62316;48.920;2.342;2024-01-16T08:12:46;98.75;;;77.25;;
73959;SDS011;62316;48.920;2.342;2024-01-16T08:15:12;88.75;;;71.00;;
73959;SDS011;62316;48.920;2.342;2024-01-16T08:17:38;88.75;;;70.25;;
73959;SDS011;62316;48.920;2.342;2024-01-16T08:20:04;92.50;;;69.25;;
73959;SDS011;62316;48.920;2.342;2024-01-16T08:22:30;92.25;;;71.00;;
73959;SDS011;62316;48.920;2.342;2024-01-16T08:24:55;92.25;;;73.00;;
73959;SDS011;62316;48.920;2.342;2024-01-16T08:27:21;89.50;;;71.25;;
73959;SDS011;62316;48.920;2.342;2024-01-16T08:29:46;91.50;;;71.50;;
73959;SDS011;62316;48.920;2.342;2024-01-16T08:32:25;88.25;;;70.50;;
73959;SDS011;62316;48.920;2.342;2024-01-16T08:34:57;98.33;;;76.67;;
73959;SDS011;62316;48.920;2.342;2024-01-16T08:37:22;89.67;;;68.00;;
73959;SDS011;62316;48.920;2.342;2024-01-16T08:39:49;98.00;;;77.00;;
73959;SDS011;62316;48.920;2.342;2024-01-16T08:42:14;100.50;;;76.00;;
73959;SDS011;62316;48.920;2.342;2024-01-16T08:44:40;95.25;;;71.75;;
73959;SDS011;62316;48.920;2.342;2024-01-16T08:47:05;92.25;;;69.50;;
73959;SDS011;62316;48.920;2.342;2024-01-16T08:49:31;91.50;;;69.25;;
73959;SDS011;62316;48.920;2.342;2024-01-16T08:51:57;91.75;;;74.50;;
73959;SDS011;62316;48.920;2.342;2024-01-16T08:54:23;68.50;;;52.25;;
73959;SDS011;62316;48.920;2.342;2024-01-16T08:56:49;92.75;;;73.50;;
73959;SDS011;62316;48.920;2.342;2024-01-16T08:59:14;92.50;;;72.50;;
73959;SDS011;62316;48.920;2.342;2024-01-16T09:01:39;90.00;;;71.25;;
73959;SDS011;62316;48.920;2.342;2024-01-16T09:04:07;85.00;;;66.50;;
73959;SDS011;62316;48.920;2.342;2024-01-16T09:06:32;86.75;;;69.50;;
73959;SDS011;62316;48.920;2.342;2024-01-16T09:08:58;95.00;;;76.67;;
73959;SDS011;62316;48.920;2.342;2024-01-16T09:11:23;101.50;;;79.75;;
73959;SDS011;62316;48.920;2.342;2024-01-16T09:13:48;95.33;;;75.67;;
73959;SDS011;62316;48.920;2.342;2024-01-16T09:16:14;97.33;;;75.67;;
73959;SDS011;62316;48.920;2.342;2024-01-16T09:18:39;102.33;;;85.00;;
73959;SDS011;62316;48.920;2.342;2024-01-16T09:21:05;103.67;;;78.67;;
73959;SDS011;62316;48.920;2.342;2024-01-16T09:23:31;101.75;;;78.75;;
73959;SDS011;62316;48.920;2.342;2024-01-16T09:25:56;92.75;;;74.75;;
73959;SDS011;62316;48.920;2.342;2024-01-16T09:28:21;97.50;;;81.75;;
73959;SDS011;62316;48.920;2.342;2024-01-16T09:30:47;93.25;;;70.25;;
73959;SDS011;62316;48.920;2.342;2024-01-16T09:33:12;105.33;;;88.00;;
73959;SDS011;62316;48.920;2.342;2024-01-16T09:35:38;96.25;;;72.25;;
73959;SDS011;62316;48.920;2.342;2024-01-16T09:38:04;95.33;;;77.00;;
73959;SDS011;62316;48.920;2.342;2024-01-16T09:40:32;100.67;;;79.00;;
73959;SDS011;62316;48.920;2.342;2024-01-16T09:42:58;100.67;;;83.00;;
73959;SDS011;62316;48.920;2.342;2024-01-16T09:45:24;108.00;;;89.33;;
73959;SDS011;62316;48.920;2.342;2024-01-16T09:47:50;93.67;;;72.67;;
73959;SDS011;62316;48.920;2.342;2024-01-16T09:50:16;102.67;;;84.67;;
73959;SDS011;62316;48.920;2.342;2024-01-16T09:52:43;97.67;;;79.67;;
73959;SDS011;62316;48.920;2.342;2024-01-16T09:55:10;97.00;;;76.67;;
73959;SDS011;62316;48.920;2.342;2024-01-16T09:57:35;98.33;;;74.67;;
73959;SDS011;62316;48.920;2.342;2024-01-16T10:00:05;96.67;;;77.00;;
73959;SDS011;62316;48.920;2.342;2024-01-16T10:02:32;98.25;;;80.00;;
73959;SDS011;62316;48.920;2.342;2024-01-16T10:04:58;101.00;;;83.33;;
73959;SDS011;62316;48.920;2.342;2024-01-16T10:07:23;96.00;;;74.00;;
73959;SDS011;62316;48.920;2.342;2024-01-16T10:09:53;99.00;;;81.67;;
73959;SDS011;62316;48.920;2.342;2024-01-16T10:12:21;109.33;;;96.33;;
73959;SDS011;62316;48.920;2.342;2024-01-16T10:14:47;101.25;;;79.75;;
73959;SDS011;62316;48.920;2.342;2024-01-16T10:17:13;99.00;;;77.25;;
73959;SDS011;62316;48.920;2.342;2024-01-16T10:19:49;104.33;;;89.33;;
73959;SDS011;62316;48.920;2.342;2024-01-16T10:22:20;96.25;;;79.50;;
73959;SDS011;62316;48.920;2.342;2024-01-16T10:24:46;92.25;;;73.25;;
73959;SDS011;62316;48.920;2.342;2024-01-16T10:27:14;104.67;;;87.33;;
73959;SDS011;62316;48.920;2.342;2024-01-16T10:29:51;91.50;;;70.00;;
73959;SDS011;62316;48.920;2.342;2024-01-16T10:32:26;98.00;;;79.00;;
73959;SDS011;62316;48.920;2.342;2024-01-16T10:35:00;93.67;;;73.33;;
73959;SDS011;62316;48.920;2.342;2024-01-16T10:37:48;100.25;;;79.75;;
73959;SDS011;62316;48.920;2.342;2024-01-16T10:40:21;101.25;;;88.50;;
73959;SDS011;62316;48.920;2.342;2024-01-16T10:43:00;105.00;;;90.00;;
73959;SDS011;62316;48.920;2.342;2024-01-16T10:45:25;101.50;;;83.25;;
73959;SDS011;62316;48.920;2.342;2024-01-16T10:48:04;100.67;;;82.33;;
73959;SDS011;62316;48.920;2.342;2024-01-16T10:50:33;96.67;;;72.00;;
73959;SDS011;62316;48.920;2.342;2024-01-16T10:53:00;98.33;;;77.67;;
73959;SDS011;62316;48.920;2.342;2024-01-16T10:55:31;97.00;;;74.67;;
73959;SDS011;62316;48.920;2.342;2024-01-16T10:57:56;101.67;;;84.00;;
73959;SDS011;62316;48.920;2.342;2024-01-16T11:00:22;100.67;;;83.00;;
73959;SDS011;62316;48.920;2.342;2024-01-16T11:02:54;103.00;;;92.67;;
73959;SDS011;62316;48.920;2.342;2024-01-16T11:05:21;95.67;;;79.33;;
73959;SDS011;62316;48.920;2.342;2024-01-16T11:07:47;101.00;;;86.67;;
73959;SDS011;62316;48.920;2.342;2024-01-16T11:10:13;102.67;;;78.67;;
73959;SDS011;62316;48.920;2.342;2024-01-16T11:12:38;100.00;;;84.00;;
73959;SDS011;62316;48.920;2.342;2024-01-16T11:15:05;102.00;;;86.67;;
73959;SDS011;62316;48.920;2.342;2024-01-16T11:17:33;102.33;;;90.67;;
73959;SDS011;62316;48.920;2.342;2024-01-16T11:20:02;100.67;;;85.33;;
73959;SDS011;62316;48.920;2.342;2024-01-16T11:22:36;98.00;;;84.67;;
73959;SDS011;62316;48.920;2.342;2024-01-16T11:25:12;99.00;;;80.33;;
73959;SDS011;62316;48.920;2.342;2024-01-16T11:27:39;95.00;;;80.00;;
73959;SDS011;62316;48.920;2.342;2024-01-16T11:30:06;99.00;;;88.00;;
73959;SDS011;62316;48.920;2.342;2024-01-16T11:32:33;93.00;;;70.00;;
73959;SDS011;62316;48.920;2.342;2024-01-16T11:35:09;91.75;;;72.50;;
73959;SDS011;62316;48.920;2.342;2024-01-16T11:37:36;95.25;;;72.75;;
73959;SDS011;62316;48.920;2.342;2024-01-16T11:42:51;91.25;;;72.75;;
73959;SDS011;62316;48.920;2.342;2024-01-16T11:48:12;93.75;;;73.50;;
73959;SDS011;62316;48.920;2.342;2024-01-16T11:50:41;92.25;;;74.75;;
73959;SDS011;62316;48.920;2.342;2024-01-16T11:53:09;90.75;;;71.25;;
73959;SDS011;62316;48.920;2.342;2024-01-16T11:55:39;91.00;;;71.00;;
73959;SDS011;62316;48.920;2.342;2024-01-16T11:58:37;75.50;;;61.25;;
73959;SDS011;62316;48.920;2.342;2024-01-16T12:01:18;90.00;;;69.25;;
73959;SDS011;62316;48.920;2.342;2024-01-16T12:03:44;93.00;;;70.75;;
73959;SDS011;62316;48.920;2.342;2024-01-16T12:06:10;96.00;;;78.67;;
73959;SDS011;62316;48.920;2.342;2024-01-16T12:08:35;94.50;;;73.25;;
73959;SDS011;62316;48.920;2.342;2024-01-16T12:11:04;86.25;;;68.75;;
73959;SDS011;62316;48.920;2.342;2024-01-16T12:13:30;95.67;;;75.00;;
73959;SDS011;62316;48.920;2.342;2024-01-16T12:15:59;90.25;;;71.25;;
73959;SDS011;62316;48.920;2.342;2024-01-16T12:18:26;86.00;;;66.00;;
73959;SDS011;62316;48.920;2.342;2024-01-16T12:20:51;86.00;;;67.25;;
73959;SDS011;62316;48.920;2.342;2024-01-16T12:23:19;91.00;;;70.50;;
73959;SDS011;62316;48.920;2.342;2024-01-16T12:25:46;83.75;;;65.25;;
73959;SDS011;62316;48.920;2.342;2024-01-16T12:28:12;64.50;;;53.25;;
73959;SDS011;62316;48.920;2.342;2024-01-16T12:30:43;89.50;;;70.00;;
73959;SDS011;62316;48.920;2.342;2024-01-16T12:33:14;87.00;;;68.00;;
73959;SDS011;62316;48.920;2.342;2024-01-16T12:35:41;83.67;;;69.00;;
73959;SDS011;62316;48.920;2.342;2024-01-16T12:38:08;84.50;;;65.75;;
73959;SDS011;62316;48.920;2.342;2024-01-16T12:40:34;84.50;;;66.75;;
73959;SDS011;62316;48.920;2.342;2024-01-16T12:43:04;79.50;;;63.25;;
73959;SDS011;62316;48.920;2.342;2024-01-16T12:45:31;83.00;;;63.75;;
73959;SDS011;62316;48.920;2.342;2024-01-16T12:47:57;84.75;;;64.00;;
73959;SDS011;62316;48.920;2.342;2024-01-16T12:50:25;78.00;;;63.00;;
73959;SDS011;62316;48.920;2.342;2024-01-16T12:53:04;79.50;;;62.75;;
73959;SDS011;62316;48.920;2.342;2024-01-16T12:55:34;74.50;;;59.50;;
73959;SDS011;62316;48.920;2.342;2024-01-16T12:58:13;73.25;;;59.75;;
73959;SDS011;62316;48.920;2.342;2024-01-16T13:00:38;72.50;;;57.00;;
73959;SDS011;62316;48.920;2.342;2024-01-16T13:03:07;69.50;;;54.50;;
73959;SDS011;62316;48.920;2.342;2024-01-16T13:05:34;74.75;;;59.25;;
73959;SDS011;62316;48.920;2.342;2024-01-16T13:08:02;72.75;;;56.50;;
73959;SDS011;62316;48.920;2.342;2024-01-16T13:10:28;70.50;;;56.75;;
73959;SDS011;62316;48.920;2.342;2024-01-16T13:13:14;76.75;;;61.25;;
73959;SDS011;62316;48.920;2.342;2024-01-16T13:15:41;83.75;;;63.00;;
73959;SDS011;62316;48.920;2.342;2024-01-16T13:18:21;74.00;;;58.75;;
73959;SDS011;62316;48.920;2.342;2024-01-16T13:20:49;74.00;;;59.75;;
73959;SDS011;62316;48.920;2.342;2024-01-16T13:23:15;67.50;;;54.00;;
73959;SDS011;62316;48.920;2.342;2024-01-16T13:25:42;70.25;;;54.50;;
73959;SDS011;62316;48.920;2.342;2024-01-16T13:28:09;73.25;;;57.00;;
73959;SDS011;62316;48.920;2.342;2024-01-16T13:30:34;67.25;;;53.00;;
73959;SDS011;62316;48.920;2.342;2024-01-16T13:32:59;56.25;;;48.75;;
73959;SDS011;62316;48.920;2.342;2024-01-16T13:35:26;51.00;;;44.50;;
73959;SDS011;62316;48.920;2.342;2024-01-16T13:37:52;50.75;;;44.25;;
73959;SDS011;62316;48.920;2.342;2024-01-16T13:40:17;45.75;;;41.25;;
73959;SDS011;62316;48.920;2.342;2024-01-16T13:42:44;50.25;;;44.00;;
73959;SDS011;62316;48.920;2.342;2024-01-16T13:45:10;51.00;;;43.75;;
73959;SDS011;62316;48.920;2.342;2024-01-16T13:47:38;61.50;;;46.50;;
73959;SDS011;62316;48.920;2.342;2024-01-16T13:50:05;58.75;;;46.75;;
73959;SDS011;62316;48.920;2.342;2024-01-16T13:52:31;59.50;;;49.50;;
73959;SDS011;62316;48.920;2.342;2024-01-16T13:54:56;57.25;;;46.00;;
73959;SDS011;62316;48.920;2.342;2024-01-16T13:57:27;44.00;;;39.25;;
73959;SDS011;62316;48.920;2.342;2024-01-16T13:59:53;59.25;;;47.00;;
73959;SDS011;62316;48.920;2.342;2024-01-16T14:02:18;47.75;;;39.25;;
73959;SDS011;62316;48.920;2.342;2024-01-16T14:04:43;46.00;;;41.25;;
73959;SDS011;62316;48.920;2.342;2024-01-16T14:07:09;48.00;;;42.50;;
73959;SDS011;62316;48.920;2.342;2024-01-16T14:09:35;47.75;;;39.00;;
73959;SDS011;62316;48.920;2.342;2024-01-16T14:12:01;41.75;;;36.50;;
73959;SDS011;62316;48.920;2.342;2024-01-16T14:14:27;45.25;;;38.25;;
73959;SDS011;62316;48.920;2.342;2024-01-16T14:16:52;42.25;;;37.50;;
73959;SDS011;62316;48.920;2.342;2024-01-16T14:19:19;34.75;;;31.50;;
73959;SDS011;62316;48.920;2.342;2024-01-16T14:21:45;30.75;;;26.50;;
73959;SDS011;62316;48.920;2.342;2024-01-16T14:24:12;23.50;;;23.50;;